sensor_id;sensor_type;location;lat;lon;timestamp;pressure;altitude;pressure_sealevel;temperature;humidity
27729;BME280;15126;42.186;24.340;2022-08-03T00:01:33;99156.16;;;25.13;52.82
27729;BME280;15126;42.186;24.340;2022-08-03T00:04:01;99147.91;;;25.10;52.48
27729;BME280;15126;42.186;24.340;2022-08-03T00:06:28;99148.84;;;24.94;52.79
27729;BME280;15126;42.186;24.340;2022-08-03T00:08:55;99151.78;;;24.82;52.53
27729;BME280;15126;42.186;24.340;2022-08-03T00:11:22;99116.38;;;24.67;53.52
27729;BME280;15126;42.186;24.340;2022-08-03T00:13:49;99144.84;;;24.72;53.29
27729;BME280;15126;42.186;24.340;2022-08-03T00:16:16;99147.16;;;24.74;54.25
27729;BME280;15126;42.186;24.340;2022-08-03T00:18:42;99148.88;;;24.58;53.45
27729;BME280;15126;42.186;24.340;2022-08-03T00:21:11;99147.16;;;24.44;53.99
27729;BME280;15126;42.186;24.340;2022-08-03T00:23:38;99151.06;;;24.41;55.05
27729;BME280;15126;42.186;24.340;2022-08-03T00:26:04;99152.06;;;24.44;54.98
27729;BME280;15126;42.186;24.340;2022-08-03T00:28:31;99146.69;;;24.40;55.39
27729;BME280;15126;42.186;24.340;2022-08-03T00:30:58;99157.50;;;24.47;55.74
27729;BME280;15126;42.186;24.340;2022-08-03T00:33:25;99156.03;;;24.35;55.67
27729;BME280;15126;42.186;24.340;2022-08-03T00:35:52;99148.28;;;24.30;54.78
27729;BME280;15126;42.186;24.340;2022-08-03T00:38:20;99143.22;;;24.17;54.57
27729;BME280;15126;42.186;24.340;2022-08-03T00:40:47;99142.63;;;24.24;55.71
27729;BME280;15126;42.186;24.340;2022-08-03T00:43:14;99146.03;;;24.23;55.03
27729;BME280;15126;42.186;24.340;2022-08-03T00:45:41;99144.03;;;24.07;55.35
27729;BME280;15126;42.186;24.340;2022-08-03T00:48:09;99145.38;;;23.95;55.36
27729;BME280;15126;42.186;24.340;2022-08-03T00:50:39;99150.59;;;23.91;55.48
27729;BME280;15126;42.186;24.340;2022-08-03T00:53:09;99149.53;;;23.94;55.77
27729;BME280;15126;42.186;24.340;2022-08-03T00:55:39;99152.69;;;23.85;56.13
27729;BME280;15126;42.186;24.340;2022-08-03T00:58:07;99146.69;;;23.94;56.32
27729;BME280;15126;42.186;24.340;2022-08-03T01:00:37;99148.22;;;23.95;57.48
27729;BME280;15126;42.186;24.340;2022-08-03T01:03:04;99154.69;;;24.01;56.19
27729;BME280;15126;42.186;24.340;2022-08-03T01:05:50;99150.03;;;23.98;57.21
27729;BME280;15126;42.186;24.340;2022-08-03T01:08:22;99135.03;;;23.92;56.53
27729;BME280;15126;42.186;24.340;2022-08-03T01:11:00;99143.28;;;24.01;55.86
27729;BME280;15126;42.186;24.340;2022-08-03T01:13:34;99154.19;;;23.97;56.61
27729;BME280;15126;42.186;24.340;2022-08-03T01:16:08;99144.09;;;23.96;57.22
27729;BME280;15126;42.186;24.340;2022-08-03T01:18:38;99154.09;;;23.67;57.20
27729;BME280;15126;42.186;24.340;2022-08-03T01:21:10;99158.50;;;23.62;57.92
27729;BME280;15126;42.186;24.340;2022-08-03T01:24:13;99149.00;;;23.43;58.54
27729;BME280;15126;42.186;24.340;2022-08-03T01:27:04;99153.44;;;23.22;59.05
27729;BME280;15126;42.186;24.340;2022-08-03T01:32:45;99140.75;;;23.23;59.64
27729;BME280;15126;42.186;24.340;2022-08-03T01:35:18;99117.50;;;23.02;59.28
27729;BME280;15126;42.186;24.340;2022-08-03T01:37:51;99116.22;;;23.09;58.76
27729;BME280;15126;42.186;24.340;2022-08-03T01:40:19;99149.53;;;23.31;59.35
27729;BME280;15126;42.186;24.340;2022-08-03T01:42:48;99149.00;;;23.32;60.46
27729;BME280;15126;42.186;24.340;2022-08-03T01:45:17;99136.56;;;23.30;59.77
27729;BME280;15126;42.186;24.340;2022-08-03T01:47:46;99147.19;;;23.29;59.34
27729;BME280;15126;42.186;24.340;2022-08-03T01:50:14;99149.78;;;23.33;59.18
27729;BME280;15126;42.186;24.340;2022-08-03T01:52:45;99145.09;;;23.35;58.07
27729;BME280;15126;42.186;24.340;2022-08-03T01:55:16;99147.19;;;23.40;57.95
27729;BME280;15126;42.186;24.340;2022-08-03T01:57:45;99148.75;;;23.41;58.92
27729;BME280;15126;42.186;24.340;2022-08-03T02:00:14;99146.94;;;23.38;58.11
27729;BME280;15126;42.186;24.340;2022-08-03T02:02:42;99138.63;;;23.35;57.89
27729;BME280;15126;42.186;24.340;2022-08-03T02:05:12;99150.81;;;23.24;57.60
27729;BME280;15126;42.186;24.340;2022-08-03T02:07:41;99145.13;;;23.30;56.93
27729;BME280;15126;42.186;24.340;2022-08-03T02:10:10;99138.16;;;23.25;57.59
27729;BME280;15126;42.186;24.340;2022-08-03T02:12:39;99150.09;;;23.18;57.57
27729;BME280;15126;42.186;24.340;2022-08-03T02:15:10;99148.28;;;23.09;58.56
27729;BME280;15126;42.186;24.340;2022-08-03T02:17:37;99136.97;;;22.71;59.09
27729;BME280;15126;42.186;24.340;2022-08-03T02:20:06;99149.38;;;22.84;60.08
27729;BME280;15126;42.186;24.340;2022-08-03T02:22:38;99154.53;;;22.58;60.03
27729;BME280;15126;42.186;24.340;2022-08-03T02:25:06;99157.09;;;22.50;60.80
27729;BME280;15126;42.186;24.340;2022-08-03T02:27:35;99151.41;;;22.50;61.01
27729;BME280;15126;42.186;24.340;2022-08-03T02:30:06;99156.84;;;22.54;61.19
27729;BME280;15126;42.186;24.340;2022-08-03T02:32:36;99158.16;;;22.47;60.93
27729;BME280;15126;42.186;24.340;2022-08-03T02:35:05;99170.56;;;22.56;61.06
27729;BME280;15126;42.186;24.340;2022-08-03T02:37:41;99166.94;;;22.61;61.57
27729;BME280;15126;42.186;24.340;2022-08-03T02:40:09;99164.59;;;22.59;60.91
27729;BME280;15126;42.186;24.340;2022-08-03T02:42:38;99168.97;;;22.32;61.48
27729;BME280;15126;42.186;24.340;2022-08-03T02:45:07;99169.22;;;22.34;61.27
27729;BME280;15126;42.186;24.340;2022-08-03T02:47:38;99162.75;;;22.39;62.52
27729;BME280;15126;42.186;24.340;2022-08-03T02:50:08;99164.84;;;22.44;62.15
27729;BME280;15126;42.186;24.340;2022-08-03T02:52:38;99157.84;;;22.40;61.69
27729;BME280;15126;42.186;24.340;2022-08-03T02:55:09;99166.91;;;22.44;62.07
27729;BME280;15126;42.186;24.340;2022-08-03T02:57:38;99159.94;;;22.45;62.25
27729;BME280;15126;42.186;24.340;2022-08-03T03:00:07;99154.78;;;22.43;62.89
27729;BME280;15126;42.186;24.340;2022-08-03T03:02:35;99158.63;;;22.35;63.05
27729;BME280;15126;42.186;24.340;2022-08-03T03:05:04;99167.94;;;22.35;62.92
27729;BME280;15126;42.186;24.340;2022-08-03T03:07:31;99171.81;;;22.38;62.20
27729;BME280;15126;42.186;24.340;2022-08-03T03:10:00;99170.00;;;22.40;62.59
27729;BME280;15126;42.186;24.340;2022-08-03T03:12:30;99169.22;;;22.34;63.96
27729;BME280;15126;42.186;24.340;2022-08-03T03:14:58;99179.25;;;22.13;63.26
27729;BME280;15126;42.186;24.340;2022-08-03T03:17:26;99178.25;;;22.16;62.86
27729;BME280;15126;42.186;24.340;2022-08-03T03:19:54;99177.22;;;22.19;63.20
27729;BME280;15126;42.186;24.340;2022-08-03T03:22:22;99188.06;;;22.21;63.42
27729;BME280;15126;42.186;24.340;2022-08-03T03:24:50;99189.38;;;22.20;64.16
27729;BME280;15126;42.186;24.340;2022-08-03T03:27:20;99194.50;;;22.16;63.67
27729;BME280;15126;42.186;24.340;2022-08-03T03:29:48;99192.66;;;22.07;63.47
27729;BME280;15126;42.186;24.340;2022-08-03T03:32:15;99191.63;;;22.05;64.32
27729;BME280;15126;42.186;24.340;2022-08-03T03:34:42;99194.25;;;22.08;63.55
27729;BME280;15126;42.186;24.340;2022-08-03T03:37:09;99198.63;;;22.04;63.81
27729;BME280;15126;42.186;24.340;2022-08-03T03:39:36;99196.03;;;22.00;64.13
27729;BME280;15126;42.186;24.340;2022-08-03T03:42:03;99199.91;;;22.08;63.01
27729;BME280;15126;42.186;24.340;2022-08-03T03:44:32;99196.81;;;22.06;62.96
27729;BME280;15126;42.186;24.340;2022-08-03T03:46:59;99207.16;;;22.09;63.38
27729;BME280;15126;42.186;24.340;2022-08-03T03:49:26;99198.91;;;22.11;63.63
27729;BME280;15126;42.186;24.340;2022-08-03T03:51:53;99202.97;;;21.99;63.70
27729;BME280;15126;42.186;24.340;2022-08-03T03:54:20;99207.88;;;21.87;63.60
27729;BME280;15126;42.186;24.340;2022-08-03T03:56:47;99207.09;;;21.87;64.34
27729;BME280;15126;42.186;24.340;2022-08-03T03:59:14;99207.09;;;21.87;64.65
27729;BME280;15126;42.186;24.340;2022-08-03T04:01:42;99214.31;;;21.93;64.34
27729;BME280;15126;42.186;24.340;2022-08-03T04:04:09;99216.34;;;21.82;64.00
27729;BME280;15126;42.186;24.340;2022-08-03T04:06:53;99223.53;;;21.83;64.13
27729;BME280;15126;42.186;24.340;2022-08-03T04:09:38;99228.97;;;21.81;64.43
27729;BME280;15126;42.186;24.340;2022-08-03T04:12:26;99217.38;;;21.84;63.33
27729;BME280;15126;42.186;24.340;2022-08-03T04:14:56;99222.09;;;21.93;63.82
27729;BME280;15126;42.186;24.340;2022-08-03T04:17:27;99222.63;;;22.08;64.44
27729;BME280;15126;42.186;24.340;2022-08-03T04:19:55;99227.31;;;22.17;63.99
27729;BME280;15126;42.186;24.340;2022-08-03T04:22:26;99233.53;;;22.26;63.59
27729;BME280;15126;42.186;24.340;2022-08-03T04:24:57;99226.34;;;22.36;62.77
27729;BME280;15126;42.186;24.340;2022-08-03T04:27:32;99221.94;;;22.41;63.70
27729;BME280;15126;42.186;24.340;2022-08-03T04:30:03;99228.91;;;22.40;63.52
27729;BME280;15126;42.186;24.340;2022-08-03T04:32:32;99225.31;;;22.50;63.63
27729;BME280;15126;42.186;24.340;2022-08-03T04:35:01;99231.53;;;22.54;63.09
27729;BME280;15126;42.186;24.340;2022-08-03T04:37:33;99237.97;;;22.38;61.47
27729;BME280;15126;42.186;24.340;2022-08-03T04:40:02;99244.09;;;22.15;61.72
27729;BME280;15126;42.186;24.340;2022-08-03T04:42:32;99244.69;;;22.46;61.23
27729;BME280;15126;42.186;24.340;2022-08-03T04:45:00;99241.16;;;22.74;61.30
27729;BME280;15126;42.186;24.340;2022-08-03T04:47:32;99245.28;;;23.00;61.29
27729;BME280;15126;42.186;24.340;2022-08-03T04:50:00;99255.34;;;23.29;61.40
27729;BME280;15126;42.186;24.340;2022-08-03T04:52:27;99250.16;;;23.55;61.33
27729;BME280;15126;42.186;24.340;2022-08-03T04:54:54;99238.75;;;23.66;59.55
27729;BME280;15126;42.186;24.340;2022-08-03T04:57:21;99259.59;;;24.02;59.90
27729;BME280;15126;42.186;24.340;2022-08-03T04:59:48;99259.81;;;24.15;56.57
27729;BME280;15126;42.186;24.340;2022-08-03T05:02:18;99259.72;;;24.38;56.31
27729;BME280;15126;42.186;24.340;2022-08-03T05:04:47;99254.97;;;24.51;55.27
27729;BME280;15126;42.186;24.340;2022-08-03T05:07:15;99253.50;;;24.74;57.34
27729;BME280;15126;42.186;24.340;2022-08-03T05:09:42;99237.03;;;24.56;54.57
27729;BME280;15126;42.186;24.340;2022-08-03T05:12:09;99255.81;;;24.81;56.22
27729;BME280;15126;42.186;24.340;2022-08-03T05:14:37;99247.78;;;24.39;55.06
27729;BME280;15126;42.186;24.340;2022-08-03T05:17:04;99262.00;;;24.45;56.24
27729;BME280;15126;42.186;24.340;2022-08-03T05:19:31;99258.09;;;24.48;56.26
27729;BME280;15126;42.186;24.340;2022-08-03T05:21:59;99259.06;;;24.56;56.22
27729;BME280;15126;42.186;24.340;2022-08-03T05:24:26;99256.69;;;24.60;55.40
27729;BME280;15126;42.186;24.340;2022-08-03T05:26:53;99249.47;;;24.59;55.20
27729;BME280;15126;42.186;24.340;2022-08-03T05:29:20;99253.75;;;24.76;56.60
27729;BME280;15126;42.186;24.340;2022-08-03T05:31:46;99244.88;;;24.85;55.67
27729;BME280;15126;42.186;24.340;2022-08-03T05:34:13;99253.13;;;24.95;55.27
27729;BME280;15126;42.186;24.340;2022-08-03T05:36:40;99254.44;;;25.23;55.00
27729;BME280;15126;42.186;24.340;2022-08-03T05:39:08;99255.16;;;25.59;55.70
27729;BME280;15126;42.186;24.340;2022-08-03T05:41:35;99271.66;;;25.90;55.35
27729;BME280;15126;42.186;24.340;2022-08-03T05:44:02;99255.72;;;26.00;54.92
27729;BME280;15126;42.186;24.340;2022-08-03T05:46:29;99274.22;;;26.37;52.38
27729;BME280;15126;42.186;24.340;2022-08-03T05:48:56;99276.00;;;26.58;49.38
27729;BME280;15126;42.186;24.340;2022-08-03T05:51:23;99273.53;;;26.68;53.31
27729;BME280;15126;42.186;24.340;2022-08-03T05:53:49;99279.97;;;26.93;52.70
27729;BME280;15126;42.186;24.340;2022-08-03T05:56:20;99278.78;;;27.01;49.38
27729;BME280;15126;42.186;24.340;2022-08-03T05:58:48;99285.97;;;27.21;51.91
27729;BME280;15126;42.186;24.340;2022-08-03T06:01:16;99270.94;;;27.34;50.55
27729;BME280;15126;42.186;24.340;2022-08-03T06:03:46;99277.41;;;27.21;49.63
27729;BME280;15126;42.186;24.340;2022-08-03T06:06:13;99275.34;;;27.35;49.17
27729;BME280;15126;42.186;24.340;2022-08-03T06:08:40;99278.94;;;27.67;51.56
27729;BME280;15126;42.186;24.340;2022-08-03T06:11:08;99277.84;;;27.70;50.99
27729;BME280;15126;42.186;24.340;2022-08-03T06:13:36;99286.22;;;27.94;48.39
27729;BME280;15126;42.186;24.340;2022-08-03T06:16:04;99281.53;;;28.10;48.71
27729;BME280;15126;42.186;24.340;2022-08-03T06:18:31;99282.28;;;28.23;46.83
27729;BME280;15126;42.186;24.340;2022-08-03T06:20:58;99282.06;;;28.34;47.23
27729;BME280;15126;42.186;24.340;2022-08-03T06:23:24;99279.69;;;28.46;47.34
27729;BME280;15126;42.186;24.340;2022-08-03T06:25:51;99268.34;;;28.41;45.14
27729;BME280;15126;42.186;24.340;2022-08-03T06:28:18;99279.78;;;28.67;47.62
27729;BME280;15126;42.186;24.340;2022-08-03T06:30:46;99279.78;;;28.67;45.65
27729;BME280;15126;42.186;24.340;2022-08-03T06:33:13;99285.81;;;28.76;46.05
27729;BME280;15126;42.186;24.340;2022-08-03T06:35:41;99283.34;;;28.93;46.41
27729;BME280;15126;42.186;24.340;2022-08-03T06:38:07;99281.72;;;29.06;47.13
27729;BME280;15126;42.186;24.340;2022-08-03T06:40:35;99279.56;;;29.19;48.11
27729;BME280;15126;42.186;24.340;2022-08-03T06:43:05;99283.53;;;29.29;43.20
27729;BME280;15126;42.186;24.340;2022-08-03T06:45:32;99285.19;;;29.45;41.95
27729;BME280;15126;42.186;24.340;2022-08-03T06:48:02;99286.03;;;29.33;46.29
27729;BME280;15126;42.186;24.340;2022-08-03T06:50:29;99277.19;;;29.51;42.63
27729;BME280;15126;42.186;24.340;2022-08-03T06:52:56;99278.88;;;29.68;45.07
27729;BME280;15126;42.186;24.340;2022-08-03T06:55:23;99281.41;;;29.79;40.57
27729;BME280;15126;42.186;24.340;2022-08-03T06:57:50;99283.63;;;29.86;45.43
27729;BME280;15126;42.186;24.340;2022-08-03T07:00:17;99270.22;;;29.88;42.60
27729;BME280;15126;42.186;24.340;2022-08-03T07:02:44;99279.78;;;30.19;44.54
27729;BME280;15126;42.186;24.340;2022-08-03T07:05:12;99280.38;;;30.25;41.96
27729;BME280;15126;42.186;24.340;2022-08-03T07:07:39;99264.50;;;30.32;43.13
27729;BME280;15126;42.186;24.340;2022-08-03T07:10:07;99255.50;;;30.35;42.21
27729;BME280;15126;42.186;24.340;2022-08-03T07:12:37;99255.00;;;30.52;44.22
27729;BME280;15126;42.186;24.340;2022-08-03T07:15:05;99273.72;;;30.74;42.53
27729;BME280;15126;42.186;24.340;2022-08-03T07:17:33;99268.50;;;30.72;40.12
27729;BME280;15126;42.186;24.340;2022-08-03T07:20:02;99268.31;;;30.78;39.99
27729;BME280;15126;42.186;24.340;2022-08-03T07:22:30;99272.19;;;30.88;40.10
27729;BME280;15126;42.186;24.340;2022-08-03T07:24:58;99266.03;;;30.76;41.72
27729;BME280;15126;42.186;24.340;2022-08-03T07:27:25;99271.81;;;30.91;44.19
27729;BME280;15126;42.186;24.340;2022-08-03T07:29:53;99268.34;;;30.85;42.67
27729;BME280;15126;42.186;24.340;2022-08-03T07:32:19;99277.25;;;31.10;43.87
27729;BME280;15126;42.186;24.340;2022-08-03T07:34:46;99281.88;;;31.20;44.20
27729;BME280;15126;42.186;24.340;2022-08-03T07:37:13;99283.25;;;31.27;40.95
27729;BME280;15126;42.186;24.340;2022-08-03T07:39:41;99285.75;;;31.31;42.85
27729;BME280;15126;42.186;24.340;2022-08-03T07:42:09;99277.66;;;31.37;38.51
27729;BME280;15126;42.186;24.340;2022-08-03T07:44:35;99286.31;;;31.29;39.19
27729;BME280;15126;42.186;24.340;2022-08-03T07:47:03;99287.84;;;31.30;37.76
27729;BME280;15126;42.186;24.340;2022-08-03T07:49:30;99282.25;;;31.09;38.19
27729;BME280;15126;42.186;24.340;2022-08-03T07:51:57;99279.50;;;30.89;40.76
27729;BME280;15126;42.186;24.340;2022-08-03T07:54:41;99286.59;;;30.88;44.32
27729;BME280;15126;42.186;24.340;2022-08-03T07:57:08;99272.97;;;30.88;41.89
27729;BME280;15126;42.186;24.340;2022-08-03T07:59:35;99278.97;;;31.05;41.41
27729;BME280;15126;42.186;24.340;2022-08-03T08:02:05;99283.19;;;31.04;38.15
27729;BME280;15126;42.186;24.340;2022-08-03T08:04:32;99285.53;;;31.06;42.04
27729;BME280;15126;42.186;24.340;2022-08-03T08:06:59;99273.78;;;30.96;42.66
27729;BME280;15126;42.186;24.340;2022-08-03T08:09:26;99287.81;;;31.15;39.30
27729;BME280;15126;42.186;24.340;2022-08-03T08:11:54;99292.25;;;31.31;39.58
27729;BME280;15126;42.186;24.340;2022-08-03T08:14:21;99287.63;;;31.20;38.54
27729;BME280;15126;42.186;24.340;2022-08-03T08:16:47;99288.78;;;31.17;40.36
27729;BME280;15126;42.186;24.340;2022-08-03T08:19:14;99284.19;;;31.30;42.06
27729;BME280;15126;42.186;24.340;2022-08-03T08:21:42;99290.75;;;31.45;42.47
27729;BME280;15126;42.186;24.340;2022-08-03T08:24:08;99281.94;;;31.51;38.52
27729;BME280;15126;42.186;24.340;2022-08-03T08:26:35;99293.09;;;31.54;39.98
27729;BME280;15126;42.186;24.340;2022-08-03T08:29:04;99285.00;;;31.68;38.25
27729;BME280;15126;42.186;24.340;2022-08-03T08:31:32;99280.75;;;31.76;38.12
27729;BME280;15126;42.186;24.340;2022-08-03T08:33:59;99285.00;;;31.68;36.57
27729;BME280;15126;42.186;24.340;2022-08-03T08:36:30;99280.00;;;31.68;39.09
27729;BME280;15126;42.186;24.340;2022-08-03T08:38:57;99273.81;;;31.72;41.75
27729;BME280;15126;42.186;24.340;2022-08-03T08:41:24;99285.38;;;31.79;38.61
27729;BME280;15126;42.186;24.340;2022-08-03T08:43:51;99281.09;;;31.88;37.54
27729;BME280;15126;42.186;24.340;2022-08-03T08:46:20;99286.47;;;31.99;35.88
27729;BME280;15126;42.186;24.340;2022-08-03T08:48:48;99281.88;;;32.11;39.80
27729;BME280;15126;42.186;24.340;2022-08-03T08:51:18;99286.28;;;32.20;37.11
27729;BME280;15126;42.186;24.340;2022-08-03T08:53:49;99282.09;;;32.06;38.57
27729;BME280;15126;42.186;24.340;2022-08-03T08:56:17;99279.19;;;32.06;36.91
27729;BME280;15126;42.186;24.340;2022-08-03T08:58:48;99278.78;;;31.94;40.07
27729;BME280;15126;42.186;24.340;2022-08-03T09:01:17;99270.16;;;32.02;38.95
27729;BME280;15126;42.186;24.340;2022-08-03T09:03:47;99260.53;;;31.92;36.76
27729;BME280;15126;42.186;24.340;2022-08-03T09:06:13;99283.78;;;32.16;41.49
27729;BME280;15126;42.186;24.340;2022-08-03T09:08:40;99266.91;;;31.90;36.48
27729;BME280;15126;42.186;24.340;2022-08-03T09:11:07;99277.06;;;32.14;40.17
27729;BME280;15126;42.186;24.340;2022-08-03T09:13:35;99272.22;;;32.16;37.01
27729;BME280;15126;42.186;24.340;2022-08-03T09:16:25;99268.59;;;32.08;39.42
27729;BME280;15126;42.186;24.340;2022-08-03T09:18:53;99277.00;;;32.29;38.29
27729;BME280;15126;42.186;24.340;2022-08-03T09:21:22;99274.84;;;32.45;39.46
27729;BME280;15126;42.186;24.340;2022-08-03T09:23:51;99276.13;;;32.59;37.00
27729;BME280;15126;42.186;24.340;2022-08-03T09:26:20;99275.28;;;32.73;36.36
27729;BME280;15126;42.186;24.340;2022-08-03T09:28:53;99270.13;;;32.64;40.35
27729;BME280;15126;42.186;24.340;2022-08-03T09:31:29;99274.56;;;32.65;41.79
27729;BME280;15126;42.186;24.340;2022-08-03T09:34:00;99278.41;;;32.68;36.84
27729;BME280;15126;42.186;24.340;2022-08-03T09:36:48;99275.00;;;32.54;39.28
27729;BME280;15126;42.186;24.340;2022-08-03T09:39:16;99277.97;;;32.24;38.27
27729;BME280;15126;42.186;24.340;2022-08-03T09:41:45;99276.84;;;32.19;36.58
27729;BME280;15126;42.186;24.340;2022-08-03T09:44:13;99274.06;;;32.44;37.49
27729;BME280;15126;42.186;24.340;2022-08-03T09:47:04;99273.28;;;32.44;36.31
27729;BME280;15126;42.186;24.340;2022-08-03T09:49:32;99274.66;;;32.35;38.49
27729;BME280;15126;42.186;24.340;2022-08-03T09:52:00;99262.50;;;32.44;38.90
27729;BME280;15126;42.186;24.340;2022-08-03T09:54:29;99272.16;;;32.39;36.60
27729;BME280;15126;42.186;24.340;2022-08-03T09:56:56;99254.03;;;32.46;40.23
27729;BME280;15126;42.186;24.340;2022-08-03T09:59:25;99259.72;;;32.69;38.68
27729;BME280;15126;42.186;24.340;2022-08-03T10:01:53;99265.19;;;32.89;38.51
27729;BME280;15126;42.186;24.340;2022-08-03T10:04:20;99261.00;;;32.83;38.70
27729;BME280;15126;42.186;24.340;2022-08-03T10:07:03;99262.47;;;32.91;36.89
27729;BME280;15126;42.186;24.340;2022-08-03T10:09:30;99256.28;;;32.95;38.44
27729;BME280;15126;42.186;24.340;2022-08-03T10:12:06;99249.72;;;32.94;38.06
27729;BME280;15126;42.186;24.340;2022-08-03T10:14:33;99254.50;;;33.07;35.87
27729;BME280;15126;42.186;24.340;2022-08-03T10:17:02;99244.78;;;33.20;38.01
27729;BME280;15126;42.186;24.340;2022-08-03T10:19:29;99249.66;;;33.10;36.12
27729;BME280;15126;42.186;24.340;2022-08-03T10:22:02;99252.19;;;33.06;35.83
27729;BME280;15126;42.186;24.340;2022-08-03T10:24:29;99249.44;;;33.15;35.60
27729;BME280;15126;42.186;24.340;2022-08-03T10:27:01;99245.84;;;33.07;34.75
27729;BME280;15126;42.186;24.340;2022-08-03T10:29:32;99247.44;;;33.25;38.93
27729;BME280;15126;42.186;24.340;2022-08-03T10:32:00;99251.25;;;33.28;36.21
27729;BME280;15126;42.186;24.340;2022-08-03T10:34:33;99233.75;;;33.26;35.41
27729;BME280;15126;42.186;24.340;2022-08-03T10:37:09;99241.94;;;33.37;35.28
27729;BME280;15126;42.186;24.340;2022-08-03T10:39:36;99235.63;;;33.31;35.04
27729;BME280;15126;42.186;24.340;2022-08-03T10:42:04;99239.59;;;33.43;34.81
27729;BME280;15126;42.186;24.340;2022-08-03T10:44:32;99241.41;;;33.31;35.59
27729;BME280;15126;42.186;24.340;2022-08-03T10:47:03;99239.28;;;33.31;36.84
27729;BME280;15126;42.186;24.340;2022-08-03T10:49:31;99246.53;;;33.40;37.49
27729;BME280;15126;42.186;24.340;2022-08-03T10:51:58;99232.59;;;33.46;34.66
27729;BME280;15126;42.186;24.340;2022-08-03T10:54:54;99230.94;;;33.35;37.13
27729;BME280;15126;42.186;24.340;2022-08-03T10:57:55;99227.16;;;33.50;37.79
27729;BME280;15126;42.186;24.340;2022-08-03T11:00:23;99224.59;;;33.54;37.42
27729;BME280;15126;42.186;24.340;2022-08-03T11:03:15;99224.44;;;33.52;33.83
27729;BME280;15126;42.186;24.340;2022-08-03T11:05:44;99217.38;;;33.45;35.38
27729;BME280;15126;42.186;24.340;2022-08-03T11:08:35;99219.13;;;33.41;34.53
27729;BME280;15126;42.186;24.340;2022-08-03T11:11:24;99215.97;;;33.29;34.45
27729;BME280;15126;42.186;24.340;2022-08-03T11:14:10;99217.47;;;33.55;36.20
27729;BME280;15126;42.186;24.340;2022-08-03T11:16:42;99220.03;;;33.51;35.17
27729;BME280;15126;42.186;24.340;2022-08-03T11:19:13;99215.59;;;33.50;38.04
27729;BME280;15126;42.186;24.340;2022-08-03T11:22:11;99232.66;;;33.63;37.04
27729;BME280;15126;42.186;24.340;2022-08-03T11:24:57;99213.69;;;33.70;36.30
27729;BME280;15126;42.186;24.340;2022-08-03T11:27:29;99215.22;;;33.71;34.37
27729;BME280;15126;42.186;24.340;2022-08-03T11:33:06;99208.66;;;33.70;35.20
27729;BME280;15126;42.186;24.340;2022-08-03T11:35:33;99201.25;;;33.60;35.06
27729;BME280;15126;42.186;24.340;2022-08-03T11:40:50;99199.13;;;33.77;34.21
27729;BME280;15126;42.186;24.340;2022-08-03T11:46:25;99195.41;;;33.67;33.50
27729;BME280;15126;42.186;24.340;2022-08-03T11:48:53;99191.81;;;33.76;36.17
27729;BME280;15126;42.186;24.340;2022-08-03T11:51:28;99178.28;;;33.79;36.48
27729;BME280;15126;42.186;24.340;2022-08-03T11:53:57;99189.44;;;33.99;36.24
27729;BME280;15126;42.186;24.340;2022-08-03T11:56:24;99175.03;;;34.09;35.08
27729;BME280;15126;42.186;24.340;2022-08-03T11:58:52;99185.94;;;34.18;33.61
27729;BME280;15126;42.186;24.340;2022-08-03T12:01:20;99189.94;;;34.23;33.06
27729;BME280;15126;42.186;24.340;2022-08-03T12:03:49;99189.00;;;34.20;34.18
27729;BME280;15126;42.186;24.340;2022-08-03T12:06:17;99179.72;;;34.22;33.58
27729;BME280;15126;42.186;24.340;2022-08-03T12:08:45;99176.47;;;34.35;33.81
27729;BME280;15126;42.186;24.340;2022-08-03T12:11:13;99171.66;;;34.47;35.98
27729;BME280;15126;42.186;24.340;2022-08-03T12:13:42;99181.88;;;34.48;33.68
27729;BME280;15126;42.186;24.340;2022-08-03T12:16:09;99175.19;;;34.55;32.23
27729;BME280;15126;42.186;24.340;2022-08-03T12:18:36;99174.09;;;34.67;31.48
27729;BME280;15126;42.186;24.340;2022-08-03T12:21:07;99162.59;;;34.60;29.64
27729;BME280;15126;42.186;24.340;2022-08-03T12:23:35;99164.34;;;34.46;30.19
27729;BME280;15126;42.186;24.340;2022-08-03T12:26:03;99163.22;;;34.58;29.63
27729;BME280;15126;42.186;24.340;2022-08-03T12:28:30;99163.53;;;34.62;32.31
27729;BME280;15126;42.186;24.340;2022-08-03T12:31:01;99165.81;;;34.64;32.82
27729;BME280;15126;42.186;24.340;2022-08-03T12:33:28;99157.53;;;34.87;32.80
27729;BME280;15126;42.186;24.340;2022-08-03T12:36:17;99155.75;;;35.01;30.74
27729;BME280;15126;42.186;24.340;2022-08-03T12:38:53;99154.69;;;34.97;30.46
27729;BME280;15126;42.186;24.340;2022-08-03T12:41:27;99165.31;;;34.85;31.84
27729;BME280;15126;42.186;24.340;2022-08-03T12:43:54;99160.81;;;34.64;30.92
27729;BME280;15126;42.186;24.340;2022-08-03T12:46:21;99153.94;;;34.43;31.36
27729;BME280;15126;42.186;24.340;2022-08-03T12:49:15;99167.44;;;34.31;31.54
27729;BME280;15126;42.186;24.340;2022-08-03T12:52:11;99157.91;;;34.21;30.04
27729;BME280;15126;42.186;24.340;2022-08-03T12:54:38;99165.41;;;33.89;30.00
27729;BME280;15126;42.186;24.340;2022-08-03T12:57:07;99163.81;;;33.62;29.91
27729;BME280;15126;42.186;24.340;2022-08-03T12:59:36;99165.81;;;33.51;30.43
27729;BME280;15126;42.186;24.340;2022-08-03T13:02:13;99154.03;;;33.32;32.66
27729;BME280;15126;42.186;24.340;2022-08-03T13:04:41;99154.81;;;33.33;33.59
27729;BME280;15126;42.186;24.340;2022-08-03T13:07:09;99149.88;;;33.26;33.07
27729;BME280;15126;42.186;24.340;2022-08-03T13:09:56;99125.81;;;32.98;33.31
27729;BME280;15126;42.186;24.340;2022-08-03T13:12:24;99154.78;;;33.16;33.02
27729;BME280;15126;42.186;24.340;2022-08-03T13:14:54;99149.66;;;33.07;33.70
27729;BME280;15126;42.186;24.340;2022-08-03T13:17:20;99151.81;;;32.98;32.37